createdAt,value
2018-01-19T00:01:07.234Z,3.43
2018-01-19T00:03:34.848Z,3.53
2018-01-19T00:06:03.182Z,4.40
2018-01-19T00:08:30.772Z,5.70
2018-01-19T00:10:58.324Z,3.80
2018-01-19T00:13:25.912Z,4.17
2018-01-19T00:15:54.450Z,4.20
2018-01-19T00:18:23.196Z,3.77
2018-01-19T00:20:51.551Z,4.77
2018-01-19T00:23:20.761Z,5.97
2018-01-19T00:25:48.335Z,3.57
2018-01-19T00:28:16.844Z,3.93
2018-01-19T00:30:44.448Z,3.20
2018-01-19T00:33:12.033Z,3.50
2018-01-19T00:35:39.647Z,3.37
2018-01-19T00:38:07.215Z,3.20
2018-01-19T00:40:34.791Z,3.43
2018-01-19T00:43:02.340Z,4.20
2018-01-19T00:45:30.701Z,2.70
2018-01-19T00:47:58.263Z,3.23
2018-01-19T00:50:25.859Z,2.57
2018-01-19T00:52:54.601Z,3.37
2018-01-19T00:55:22.963Z,3.87
2018-01-19T00:57:50.520Z,3.40
2018-01-19T01:00:18.124Z,3.40
2018-01-19T01:02:45.701Z,2.63
2018-01-19T01:05:13.309Z,3.90
2018-01-19T01:07:40.887Z,3.63
2018-01-19T01:10:08.490Z,2.80
2018-01-19T01:12:36.047Z,4.13
2018-01-19T01:15:03.635Z,3.40
2018-01-19T01:17:31.206Z,3.90
2018-01-19T01:19:58.781Z,3.30
2018-01-19T01:22:26.367Z,3.63
2018-01-19T01:24:54.661Z,4.50
2018-01-19T01:27:23.364Z,3.60
2018-01-19T01:29:52.291Z,3.50
2018-01-19T01:32:19.875Z,3.93
2018-01-19T01:34:47.479Z,3.50
2018-01-19T01:37:15.096Z,4.33
2018-01-19T01:39:42.677Z,3.43
2018-01-19T01:42:10.280Z,3.57
2018-01-19T01:44:37.858Z,3.37
2018-01-19T01:47:05.450Z,4.00
2018-01-19T01:49:33.034Z,3.50
2018-01-19T01:52:00.627Z,3.77
2018-01-19T01:54:28.959Z,3.40
2018-01-19T01:56:56.556Z,3.13
2018-01-19T01:59:24.123Z,3.60
2018-01-19T02:01:52.424Z,4.00
2018-01-19T02:04:20.023Z,3.87
2018-01-19T02:06:47.612Z,2.87
2018-01-19T02:09:15.228Z,3.67
2018-01-19T02:11:42.799Z,3.10
2018-01-19T02:14:10.411Z,2.63
2018-01-19T02:16:37.987Z,3.27
2018-01-19T02:19:05.582Z,3.87
2018-01-19T02:21:33.163Z,3.37
2018-01-19T02:24:00.741Z,3.93
2018-01-19T02:26:28.300Z,3.23
2018-01-19T02:28:55.881Z,3.33
2018-01-19T02:31:24.856Z,3.30
2018-01-19T02:33:54.316Z,3.00
2018-01-19T02:36:22.292Z,4.63
2018-01-19T02:38:49.863Z,4.00
2018-01-19T02:41:18.235Z,3.60
2018-01-19T02:43:45.811Z,3.83
2018-01-19T02:46:13.414Z,4.43
2018-01-19T02:48:40.990Z,3.23
2018-01-19T02:51:08.576Z,3.60
2018-01-19T02:53:36.151Z,2.40
2018-01-19T02:56:03.761Z,3.70
2018-01-19T02:58:32.105Z,3.20
2018-01-19T03:01:00.699Z,3.10
2018-01-19T03:03:28.278Z,2.90
2018-01-19T03:05:55.892Z,2.87
2018-01-19T03:08:24.393Z,3.60
2018-01-19T03:10:52.637Z,3.33
2018-01-19T03:13:20.191Z,2.93
2018-01-19T03:15:47.815Z,3.20
2018-01-19T03:18:16.167Z,2.90
2018-01-19T03:20:44.741Z,3.00
2018-01-19T03:23:13.115Z,2.80
2018-01-19T03:25:40.681Z,5.03
2018-01-19T03:28:08.268Z,2.97
2018-01-19T03:30:35.920Z,2.30
2018-01-19T03:33:04.247Z,3.27
2018-01-19T03:35:31.831Z,3.17
2018-01-19T03:37:59.428Z,2.63
2018-01-19T03:40:27.987Z,2.80
2018-01-19T03:42:55.594Z,2.80
2018-01-19T03:45:23.986Z,3.33
2018-01-19T03:47:52.273Z,3.70
2018-01-19T03:50:19.848Z,4.70
2018-01-19T03:52:47.468Z,3.83
2018-01-19T03:55:15.055Z,3.03
2018-01-19T03:57:42.652Z,3.10
2018-01-19T04:00:10.227Z,2.97
2018-01-19T04:02:37.822Z,3.20
2018-01-19T04:05:05.398Z,3.57
2018-01-19T04:07:32.978Z,3.07
2018-01-19T04:10:00.558Z,2.70
2018-01-19T04:12:28.172Z,7.10
2018-01-19T04:14:55.749Z,4.00
2018-01-19T04:17:24.418Z,5.03
2018-01-19T04:19:52.607Z,3.90
2018-01-19T04:22:20.186Z,3.90
2018-01-19T04:24:48.566Z,4.33
2018-01-19T04:27:16.152Z,3.77
2018-01-19T04:29:44.524Z,2.93
2018-01-19T04:32:12.103Z,6.23
2018-01-19T04:34:39.686Z,3.33
2018-01-19T04:37:07.268Z,4.70
2018-01-19T04:39:34.878Z,3.50
2018-01-19T04:42:02.453Z,3.30
2018-01-19T04:44:30.954Z,3.20
2018-01-19T04:46:58.522Z,4.57
2018-01-19T04:49:26.128Z,3.80
2018-01-19T04:51:54.975Z,3.20
2018-01-19T04:54:24.532Z,5.57
2018-01-19T04:56:53.037Z,4.20
2018-01-19T04:59:20.675Z,3.10
2018-01-19T05:01:48.257Z,3.23
2018-01-19T05:04:15.820Z,4.30
2018-01-19T05:06:43.432Z,3.53
2018-01-19T05:09:11.012Z,2.90
2018-01-19T05:11:38.613Z,3.17
2018-01-19T05:14:06.969Z,3.63
2018-01-19T05:16:34.575Z,4.50
2018-01-19T05:19:02.933Z,3.37
2018-01-19T05:21:30.548Z,2.73
2018-01-19T05:23:58.120Z,3.63
2018-01-19T05:26:25.725Z,3.63
2018-01-19T05:28:54.476Z,4.77
2018-01-19T05:31:23.795Z,4.03
2018-01-19T05:33:53.145Z,3.43
2018-01-19T05:36:20.727Z,4.97
2018-01-19T05:38:48.345Z,3.23
2018-01-19T05:41:15.940Z,3.90
2018-01-19T05:43:43.539Z,3.10
2018-01-19T05:46:11.119Z,4.13
2018-01-19T05:48:40.367Z,4.00
2018-01-19T05:51:08.711Z,3.27
2018-01-19T05:53:36.307Z,4.47
2018-01-19T05:56:03.889Z,7.27
2018-01-19T05:58:31.494Z,4.47
2018-01-19T06:00:59.076Z,3.00
2018-01-19T06:03:26.705Z,4.80
2018-01-19T06:05:55.042Z,4.90
2018-01-19T06:08:23.639Z,3.50
2018-01-19T06:10:51.256Z,3.70
2018-01-19T06:13:19.537Z,3.87
2018-01-19T06:15:47.144Z,4.87
2018-01-19T06:18:15.709Z,5.87
2018-01-19T06:20:43.324Z,3.20
2018-01-19T06:23:10.897Z,3.33
2018-01-19T06:25:38.509Z,4.10
2018-01-19T06:28:06.093Z,5.37
2018-01-19T06:30:33.694Z,3.70
2018-01-19T06:33:01.270Z,4.40
2018-01-19T06:35:28.874Z,5.30
2018-01-19T06:37:57.203Z,4.53
2018-01-19T06:40:24.790Z,6.33
2018-01-19T06:42:52.746Z,5.50
2018-01-19T06:45:21.085Z,5.50
2018-01-19T06:47:48.668Z,7.20
2018-01-19T06:50:16.249Z,6.90
2018-01-19T06:52:43.860Z,5.90
2018-01-19T06:55:11.446Z,5.53
2018-01-19T06:57:39.064Z,4.67
2018-01-19T07:00:06.639Z,6.83
2018-01-19T07:02:34.276Z,5.97
2018-01-19T07:05:01.871Z,13.00
2018-01-19T07:07:29.448Z,7.80
2018-01-19T07:09:57.061Z,10.53
2018-01-19T07:12:24.688Z,6.77
2018-01-19T07:14:52.311Z,6.60
2018-01-19T07:17:19.880Z,6.97
2018-01-19T07:19:47.462Z,8.23
2018-01-19T07:22:15.055Z,5.90
2018-01-19T07:24:42.660Z,7.57
2018-01-19T07:27:10.240Z,9.50
2018-01-19T07:29:37.847Z,9.40
2018-01-19T07:32:05.429Z,7.67
2018-01-19T07:34:33.040Z,10.20
2018-01-19T07:37:00.632Z,7.57
2018-01-19T07:39:29.014Z,13.73
2018-01-19T07:41:56.626Z,12.83
2018-01-19T07:44:24.971Z,9.83
2018-01-19T07:46:53.782Z,9.70
2018-01-19T07:49:21.352Z,8.90
2018-01-19T07:51:48.972Z,9.37
2018-01-19T07:54:16.569Z,7.50
2018-01-19T07:56:44.189Z,7.53
2018-01-19T07:59:12.545Z,11.93
2018-01-19T08:01:40.146Z,10.70
2018-01-19T08:04:07.733Z,8.17
2018-01-19T08:06:35.357Z,8.00
2018-01-19T08:09:02.955Z,9.83
2018-01-19T08:11:30.574Z,8.00
2018-01-19T08:13:58.136Z,8.70
2018-01-19T08:16:25.741Z,8.40
2018-01-19T08:18:54.625Z,11.13
2018-01-19T08:21:23.358Z,12.40
2018-01-19T08:23:50.956Z,8.07
2018-01-19T08:26:18.543Z,13.07
2018-01-19T08:28:46.159Z,8.27
2018-01-19T08:31:14.496Z,9.80
2018-01-19T08:33:42.108Z,14.03
2018-01-19T08:36:09.705Z,14.60
2018-01-19T08:38:37.307Z,15.77
2018-01-19T08:41:05.655Z,12.27
2018-01-19T08:43:33.248Z,20.80
2018-01-19T08:46:00.834Z,22.77
2018-01-19T08:48:28.444Z,30.67
2018-01-19T08:50:56.043Z,23.03
2018-01-19T08:53:24.402Z,14.83
2018-01-19T08:55:52.380Z,13.23
2018-01-19T08:58:19.979Z,12.50
2018-01-19T09:00:47.576Z,14.27
2018-01-19T09:03:15.219Z,11.10
2018-01-19T09:05:42.816Z,16.40
2018-01-19T09:08:10.400Z,15.30
2018-01-19T09:10:38.019Z,18.13
2018-01-19T09:13:05.604Z,15.20
2018-01-19T09:15:33.210Z,16.27
2018-01-19T09:18:00.801Z,12.27
2018-01-19T09:20:28.425Z,15.03
2018-01-19T09:22:56.007Z,12.07
2018-01-19T09:25:24.744Z,13.97
2018-01-19T09:27:52.371Z,13.90
2018-01-19T09:30:20.759Z,11.47
2018-01-19T09:32:48.347Z,12.57
2018-01-19T09:35:15.923Z,16.33
2018-01-19T09:37:43.532Z,13.83
2018-01-19T09:40:11.908Z,13.73
2018-01-19T09:42:39.520Z,21.60
2018-01-19T09:45:07.101Z,19.23
2018-01-19T09:47:35.454Z,12.20
2018-01-19T09:50:03.011Z,14.90
2018-01-19T09:52:30.628Z,12.70
2018-01-19T09:54:58.196Z,15.73
2018-01-19T09:57:25.804Z,14.50
2018-01-19T09:59:54.616Z,13.73
2018-01-19T10:02:23.396Z,13.00
2018-01-19T10:04:52.567Z,9.93
2018-01-19T10:07:20.181Z,10.80
2018-01-19T10:09:48.537Z,14.70
2018-01-19T10:12:16.110Z,11.80
2018-01-19T10:14:43.703Z,10.67
2018-01-19T10:17:11.287Z,14.73
2018-01-19T10:19:38.895Z,17.00
2018-01-19T10:22:06.493Z,10.23
2018-01-19T10:24:34.102Z,10.30
2018-01-19T10:27:02.442Z,13.57
2018-01-19T10:29:30.030Z,10.63
2018-01-19T10:31:57.591Z,17.63
2018-01-19T10:34:25.193Z,12.50
2018-01-19T10:36:54.458Z,11.87
2018-01-19T10:39:22.673Z,15.00
2018-01-19T10:41:50.254Z,13.80
2018-01-19T10:44:18.630Z,12.47
2018-01-19T10:46:46.227Z,11.70
2018-01-19T10:49:13.837Z,11.57
2018-01-19T10:51:41.415Z,9.37
2018-01-19T10:54:09.810Z,12.17
2018-01-19T10:56:38.153Z,20.27
2018-01-19T10:59:05.728Z,15.13
2018-01-19T11:01:33.360Z,13.03
2018-01-19T11:04:00.948Z,12.50
2018-01-19T11:06:28.551Z,14.53
2018-01-19T11:08:56.112Z,12.93
2018-01-19T11:11:25.048Z,7.60
2018-01-19T11:13:54.611Z,13.83
2018-01-19T11:16:23.319Z,12.47
2018-01-19T11:18:50.902Z,14.13
2018-01-19T11:21:18.511Z,9.73
2018-01-19T11:23:46.094Z,11.90
2018-01-19T11:26:14.964Z,15.03
2018-01-19T11:28:43.308Z,13.50
2018-01-19T11:31:10.884Z,14.27
2018-01-19T11:33:38.485Z,14.20
2018-01-19T11:36:06.066Z,13.50
2018-01-19T11:38:33.691Z,16.60
2018-01-19T11:41:01.259Z,10.37
2018-01-19T11:43:28.861Z,9.90
2018-01-19T11:45:56.456Z,8.13
2018-01-19T11:48:24.052Z,14.70
2018-01-19T11:50:52.681Z,13.97
2018-01-19T11:53:20.293Z,10.50
2018-01-19T11:55:47.872Z,10.63
2018-01-19T11:58:15.480Z,9.57
2018-01-19T12:00:43.517Z,8.57
2018-01-19T12:03:11.096Z,14.60
2018-01-19T12:05:40.678Z,8.70
2018-01-19T12:08:08.280Z,12.97
2018-01-19T12:10:35.907Z,14.03
2018-01-19T12:13:03.511Z,10.60
2018-01-19T12:15:31.142Z,10.30
2018-01-19T12:17:58.725Z,10.03
2018-01-19T12:20:26.324Z,19.30
2018-01-19T12:22:55.257Z,10.47
2018-01-19T12:25:22.878Z,17.10
2018-01-19T12:27:51.238Z,11.90
2018-01-19T12:30:19.620Z,9.03
2018-01-19T12:32:47.215Z,11.00
2018-01-19T12:35:15.596Z,10.57
2018-01-19T12:37:43.182Z,9.30
2018-01-19T12:40:10.791Z,7.80
2018-01-19T12:42:39.153Z,11.90
2018-01-19T12:45:06.779Z,11.30
2018-01-19T12:47:35.105Z,10.77
2018-01-19T12:50:02.716Z,7.20
2018-01-19T12:52:30.310Z,11.47
2018-01-19T12:56:10.200Z,9.17
2018-01-19T12:58:37.769Z,7.90
2018-01-19T13:01:05.368Z,11.53
2018-01-19T13:03:32.981Z,9.17
2018-01-19T13:06:00.587Z,12.70
2018-01-19T13:08:28.946Z,14.63
2018-01-19T13:10:56.552Z,13.47
2018-01-19T13:13:24.186Z,10.07
2018-01-19T13:15:52.490Z,11.17
2018-01-19T13:18:20.086Z,9.10
2018-01-19T13:20:47.671Z,13.80
2018-01-19T13:23:15.275Z,12.13
2018-01-19T13:25:42.863Z,14.17
2018-01-19T13:28:10.479Z,17.43
2018-01-19T13:30:38.836Z,24.40
2018-01-19T13:33:06.448Z,12.43
2018-01-19T13:35:34.026Z,8.50
2018-01-19T13:38:01.636Z,7.90
2018-01-19T13:40:29.964Z,8.43
2018-01-19T13:42:57.565Z,5.73
2018-01-19T13:45:25.156Z,11.10
2018-01-19T13:47:54.415Z,6.10
2018-01-19T13:50:23.133Z,6.50
2018-01-19T13:52:51.510Z,6.40
2018-01-19T13:55:19.078Z,4.63
2018-01-19T13:57:46.658Z,8.70
2018-01-19T14:00:14.278Z,6.03
2018-01-19T14:02:41.860Z,5.37
2018-01-19T14:05:09.474Z,6.13
2018-01-19T14:07:37.806Z,10.37
2018-01-19T14:10:05.414Z,5.93
2018-01-19T14:12:32.999Z,13.10
2018-01-19T14:15:00.609Z,6.67
2018-01-19T14:17:28.175Z,7.00
2018-01-19T14:19:56.210Z,5.80
2018-01-19T14:22:25.223Z,5.70
2018-01-19T14:24:54.961Z,5.60
2018-01-19T14:27:23.262Z,6.77
2018-01-19T14:29:54.141Z,8.20
2018-01-19T14:32:22.442Z,5.90
2018-01-19T14:34:50.064Z,10.10
2018-01-19T14:37:17.664Z,6.67
2018-01-19T14:39:46.033Z,7.87
2018-01-19T14:42:13.648Z,34.97
2018-01-19T14:44:41.227Z,7.60
2018-01-19T14:47:08.859Z,7.70
2018-01-19T14:49:36.449Z,7.53
2018-01-19T14:52:04.082Z,10.43
2018-01-19T14:54:31.648Z,10.23
2018-01-19T14:56:59.240Z,6.73
2018-01-19T14:59:26.834Z,8.23
2018-01-19T15:01:54.427Z,8.80
2018-01-19T15:04:22.474Z,15.80
2018-01-19T15:06:50.093Z,9.53
2018-01-19T15:09:17.676Z,6.60
2018-01-19T15:11:45.316Z,7.40
2018-01-19T15:14:12.910Z,7.13
2018-01-19T15:16:40.486Z,9.43
2018-01-19T15:19:08.863Z,8.37
2018-01-19T15:21:36.443Z,7.10
2018-01-19T15:24:04.311Z,6.93
2018-01-19T15:26:31.914Z,10.13
2018-01-19T15:28:59.503Z,7.90
2018-01-19T15:31:27.070Z,6.80
2018-01-19T15:33:55.679Z,6.20
2018-01-19T15:36:25.586Z,10.00
2018-01-19T15:38:53.182Z,5.80
2018-01-19T15:41:20.783Z,4.37
2018-01-19T15:43:48.399Z,5.40
2018-01-19T15:46:15.982Z,4.67
2018-01-19T15:48:43.609Z,5.63
2018-01-19T15:51:11.173Z,7.87
2018-01-19T15:53:39.493Z,9.40
2018-01-19T15:56:07.095Z,7.83
2018-01-19T15:58:36.122Z,3.97
2018-01-19T16:01:04.664Z,4.90
2018-01-19T16:03:33.726Z,6.65
2018-01-19T16:06:03.499Z,11.70
2018-01-19T16:08:31.170Z,4.63
2018-01-19T16:10:58.779Z,9.77
2018-01-19T16:13:26.368Z,7.83
2018-01-19T16:15:54.341Z,7.53
2018-01-19T16:18:23.583Z,8.33
2018-01-19T16:20:51.208Z,8.63
2018-01-19T16:23:19.564Z,9.17
2018-01-19T16:25:47.261Z,7.53
2018-01-19T16:28:14.850Z,10.10
2018-01-19T16:30:42.439Z,11.40
2018-01-19T16:33:10.056Z,8.70
2018-01-19T16:35:38.395Z,7.83
2018-01-19T16:38:05.997Z,16.23
2018-01-19T16:40:33.586Z,7.40
2018-01-19T16:43:01.214Z,10.07
2018-01-19T16:45:29.624Z,8.53
2018-01-19T16:47:57.208Z,7.60
2018-01-19T16:50:24.915Z,8.77
2018-01-19T16:52:53.837Z,7.17
2018-01-19T16:55:21.450Z,12.70
2018-01-19T16:58:06.662Z,6.70
2018-01-19T17:00:46.482Z,10.53
2018-01-19T17:03:14.956Z,9.70
2018-01-19T17:05:43.493Z,8.17
2018-01-19T17:08:11.484Z,8.13
2018-01-19T17:10:39.079Z,8.63
2018-01-19T17:13:06.694Z,8.77
2018-01-19T17:15:34.306Z,10.10
2018-01-19T17:18:01.950Z,15.63
2018-01-19T17:20:29.554Z,17.40
2018-01-19T17:22:57.690Z,10.57
2018-01-19T17:25:26.266Z,9.60
2018-01-19T17:27:53.881Z,11.63
2018-01-19T17:30:23.411Z,15.50
2018-01-19T17:32:52.862Z,12.53
2018-01-19T17:35:20.486Z,16.47
2018-01-19T17:37:48.105Z,11.03
2018-01-19T17:40:18.077Z,13.57
2018-01-19T17:42:45.672Z,16.63
2018-01-19T17:45:13.264Z,14.00
2018-01-19T17:47:40.879Z,14.87
2018-01-19T17:50:08.509Z,12.87
2018-01-19T17:52:36.175Z,17.53
2018-01-19T17:55:04.550Z,14.40
2018-01-19T17:57:32.726Z,15.33
2018-01-19T18:00:00.314Z,17.63
2018-01-19T18:02:27.919Z,15.33
2018-01-19T18:04:56.573Z,18.83
2018-01-19T18:07:24.182Z,15.77
2018-01-19T18:09:52.467Z,16.27
2018-01-19T18:12:20.056Z,14.07
2018-01-19T18:14:47.692Z,23.27
2018-01-19T18:17:15.277Z,19.13
2018-01-19T18:19:42.901Z,18.70
2018-01-19T18:22:10.526Z,16.70
2018-01-19T18:36:51.442Z,17.43
2018-01-19T18:39:19.064Z,21.47
2018-01-19T18:41:46.865Z,17.43
2018-01-19T18:44:14.505Z,16.90
2018-01-19T18:46:43.036Z,18.50
2018-01-19T18:49:10.679Z,21.67
2018-01-19T18:51:39.044Z,21.10
2018-01-19T18:54:06.654Z,22.37
2018-01-19T18:56:34.699Z,53.33
2018-01-19T18:59:03.170Z,39.60
2018-01-19T19:01:30.898Z,35.37
2018-01-19T19:03:58.545Z,45.50
2018-01-19T19:06:26.905Z,72.40
2018-01-19T19:08:54.551Z,51.83
2018-01-19T19:11:30.043Z,45.83
2018-01-19T19:13:57.652Z,49.60
2018-01-19T19:16:25.263Z,42.83
2018-01-19T19:18:53.676Z,34.50
2018-01-19T19:21:22.051Z,56.17
2018-01-19T19:23:49.686Z,63.57
2018-01-19T19:26:17.303Z,40.70
2018-01-19T19:28:44.911Z,55.23
2018-01-19T19:31:12.567Z,23.03
2018-01-19T19:33:40.168Z,20.93
2018-01-19T19:36:07.762Z,20.30
2018-01-19T19:38:36.814Z,17.17
2018-01-19T19:41:06.325Z,22.20
2018-01-19T19:43:33.967Z,20.33
2018-01-19T19:46:01.554Z,22.23
2018-01-19T19:48:29.235Z,21.07
2018-01-19T19:50:56.841Z,21.70
2018-01-19T19:53:24.438Z,23.57
2018-01-19T19:55:52.060Z,21.63
2018-01-19T19:58:20.591Z,22.90
2018-01-19T20:00:48.234Z,28.53
2018-01-19T20:03:15.826Z,25.17
2018-01-19T20:05:43.456Z,27.23
2018-01-19T20:08:11.073Z,31.07
2018-01-19T20:10:38.704Z,31.70
2018-01-19T20:13:07.161Z,20.77
2018-01-19T20:15:36.721Z,16.77
2018-01-19T20:18:04.778Z,25.17
2018-01-19T20:20:32.407Z,32.90
2018-01-19T20:23:00.022Z,22.73
2018-01-19T20:25:27.680Z,20.03
2018-01-19T20:27:55.291Z,19.60
2018-01-19T20:30:23.646Z,21.63
2018-01-19T20:32:51.274Z,24.57
2018-01-19T20:35:19.662Z,20.30
2018-01-19T20:37:47.284Z,19.50
2018-01-19T20:40:23.791Z,66.53
2018-01-19T20:42:52.588Z,36.33
2018-01-19T20:45:20.961Z,20.80
2018-01-19T20:47:48.564Z,24.03
2018-01-19T20:50:18.413Z,19.80
2018-01-19T20:52:46.911Z,20.10
2018-01-19T20:55:15.281Z,16.63
2018-01-19T20:57:42.913Z,17.33
2018-01-19T21:00:10.526Z,16.40
2018-01-19T21:02:38.151Z,16.07
2018-01-19T21:05:06.148Z,15.13
2018-01-19T21:07:33.800Z,16.53
2018-01-19T21:10:01.399Z,18.37
2018-01-19T21:12:29.029Z,18.47
2018-01-19T21:14:57.386Z,16.40
2018-01-19T21:17:24.999Z,18.37
2018-01-19T21:19:53.403Z,15.03
2018-01-19T21:22:21.770Z,19.43
2018-01-19T21:24:49.402Z,20.37
2018-01-19T21:27:17.768Z,21.27
2018-01-19T21:29:45.398Z,21.80
2018-01-19T21:32:12.987Z,25.60
2018-01-19T21:34:40.615Z,19.40
2018-01-19T21:37:08.198Z,24.33
2018-01-19T21:39:35.987Z,26.10
2018-01-19T21:42:03.589Z,21.83
2018-01-19T21:44:31.217Z,20.17
2018-01-19T21:46:58.835Z,18.43
2018-01-19T21:49:26.484Z,21.10
2018-01-19T21:51:54.061Z,20.63
2018-01-19T21:54:22.421Z,28.37
2018-01-19T21:56:50.044Z,19.80
2018-01-19T21:59:19.345Z,20.67
2018-01-19T22:01:47.743Z,21.43
2018-01-19T22:04:15.345Z,19.30
2018-01-19T22:06:42.942Z,23.23
2018-01-19T22:09:12.325Z,21.30
2018-01-19T22:11:39.972Z,23.77
2018-01-19T22:14:07.575Z,24.80
2018-01-19T22:16:35.205Z,43.97
2018-01-19T22:19:02.815Z,39.27
2018-01-19T22:21:31.193Z,39.47
2018-01-19T22:23:58.824Z,31.17
2018-01-19T22:26:26.437Z,34.27
2018-01-19T22:28:54.057Z,32.00
2018-01-19T22:31:22.436Z,33.97
2018-01-19T22:33:50.068Z,30.80
2018-01-19T22:36:17.670Z,24.07
2018-01-19T22:38:45.313Z,22.37
2018-01-19T22:41:12.932Z,21.70
2018-01-19T22:43:40.543Z,21.33
2018-01-19T22:46:08.135Z,22.40
2018-01-19T22:48:36.203Z,20.80
2018-01-19T22:51:03.779Z,21.13
2018-01-19T22:53:31.406Z,23.50
2018-01-19T22:55:59.006Z,18.27
2018-01-19T22:58:26.657Z,19.73
2018-01-19T23:00:54.278Z,19.00
2018-01-19T23:03:21.864Z,20.03
2018-01-19T23:05:49.474Z,21.37
2018-01-19T23:08:17.821Z,20.07
2018-01-19T23:10:45.461Z,22.10
2018-01-19T23:13:13.834Z,26.03
2018-01-19T23:15:41.459Z,21.93
2018-01-19T23:18:09.976Z,20.13
2018-01-19T23:20:37.597Z,22.67
2018-01-19T23:23:05.639Z,16.70
2018-01-19T23:25:34.038Z,17.53
2018-01-19T23:28:02.385Z,21.50
2018-01-19T23:30:29.961Z,20.13
2018-01-19T23:32:57.581Z,17.20
2018-01-19T23:35:25.159Z,20.90
2018-01-19T23:37:52.776Z,19.30
2018-01-19T23:40:21.147Z,20.20
2018-01-19T23:42:48.801Z,20.17
2018-01-19T23:45:16.397Z,20.93
2018-01-19T23:47:43.994Z,21.73
2018-01-19T23:50:11.576Z,20.13
2018-01-19T23:52:39.207Z,19.00
2018-01-19T23:55:07.568Z,19.33
2018-01-19T23:57:36.088Z,21.37
